createdAt,value
2018-06-29T00:00:05.433Z,1015.44
2018-06-29T00:01:05.412Z,1015.44
2018-06-29T00:02:05.403Z,1015.46
2018-06-29T00:03:05.397Z,1015.47
2018-06-29T00:04:05.473Z,1015.48
2018-06-29T00:05:05.368Z,1015.48
2018-06-29T00:06:05.359Z,1015.47
2018-06-29T00:07:05.333Z,1015.48
2018-06-29T00:08:05.334Z,1015.47
2018-06-29T00:09:05.307Z,1015.49
2018-06-29T00:10:05.307Z,1015.47
2018-06-29T00:11:05.279Z,1015.51
2018-06-29T00:12:05.275Z,1015.46
2018-06-29T00:13:05.255Z,1015.46
2018-06-29T00:14:05.239Z,1015.44
2018-06-29T00:15:05.230Z,1015.49
2018-06-29T00:16:05.217Z,1015.43
2018-06-29T00:17:05.200Z,1015.45
2018-06-29T00:18:05.188Z,1015.42
2018-06-29T00:19:05.175Z,1015.41
2018-06-29T00:20:05.161Z,1015.42
2018-06-29T00:21:05.150Z,1015.38
2018-06-29T00:22:05.135Z,1015.39
2018-06-29T00:23:05.122Z,1015.40
2018-06-29T00:24:05.109Z,1015.38
2018-06-29T00:25:05.095Z,1015.39
2018-06-29T00:26:05.091Z,1015.43
2018-06-29T00:27:05.077Z,1015.43
2018-06-29T00:28:05.055Z,1015.41
2018-06-29T00:29:05.044Z,1015.40
2018-06-29T00:30:05.030Z,1015.40
2018-06-29T00:31:05.074Z,1015.36
2018-06-29T00:32:05.001Z,1015.36
2018-06-29T00:33:04.997Z,1015.34
2018-06-29T00:34:04.975Z,1015.35
2018-06-29T00:35:04.962Z,1015.30
2018-06-29T00:36:04.955Z,1015.29
2018-06-29T00:37:04.939Z,1015.28
2018-06-29T00:38:04.923Z,1015.25
2018-06-29T00:39:04.910Z,1015.25
2018-06-29T00:40:04.899Z,1015.30
2018-06-29T00:41:04.882Z,1015.23
2018-06-29T00:42:04.870Z,1015.22
2018-06-29T00:43:04.855Z,1015.27
2018-06-29T00:44:04.847Z,1015.23
2018-06-29T00:45:04.829Z,1015.26
2018-06-29T00:46:04.815Z,1015.23
2018-06-29T00:47:04.853Z,1015.28
2018-06-29T00:48:04.789Z,1015.26
2018-06-29T00:49:04.775Z,1015.24
2018-06-29T00:50:04.763Z,1015.25
2018-06-29T00:51:04.749Z,1015.27
2018-06-29T00:52:04.735Z,1015.25
2018-06-29T00:53:04.721Z,1015.27
2018-06-29T00:54:04.709Z,1015.25
2018-06-29T00:55:04.696Z,1015.22
2018-06-29T00:56:04.683Z,1015.24
2018-06-29T00:57:04.669Z,1015.22
2018-06-29T00:58:04.655Z,1015.27
2018-06-29T00:59:04.650Z,1015.27
2018-06-29T01:00:04.629Z,1015.27
2018-06-29T01:01:04.621Z,1015.24
2018-06-29T01:02:04.608Z,1015.29
2018-06-29T01:03:04.604Z,1015.29
2018-06-29T01:04:04.575Z,1015.26
2018-06-29T01:05:04.557Z,1015.26
2018-06-29T01:06:04.547Z,1015.27
2018-06-29T01:07:04.532Z,1015.25
2018-06-29T01:08:04.626Z,1015.28
2018-06-29T01:09:04.506Z,1015.36
2018-06-29T01:10:04.491Z,1015.31
2018-06-29T01:11:04.477Z,1015.33
2018-06-29T01:12:04.464Z,1015.32
2018-06-29T01:13:04.450Z,1015.31
2018-06-29T01:14:04.436Z,1015.30
2018-06-29T01:15:04.425Z,1015.31
2018-06-29T01:16:04.410Z,1015.28
2018-06-29T01:17:04.403Z,1015.32
2018-06-29T01:18:04.382Z,1015.31
2018-06-29T01:19:04.369Z,1015.32
2018-06-29T01:20:04.355Z,1015.30
2018-06-29T01:21:04.350Z,1015.32
2018-06-29T01:22:04.327Z,1015.29
2018-06-29T01:23:04.314Z,1015.23
2018-06-29T01:24:04.301Z,1015.25
2018-06-29T01:25:04.287Z,1015.25
2018-06-29T01:26:04.276Z,1015.23
2018-06-29T01:27:04.257Z,1015.26
2018-06-29T01:28:04.247Z,1015.26
2018-06-29T01:29:04.230Z,1015.25
2018-06-29T01:30:04.220Z,1015.25
2018-06-29T01:31:04.203Z,1015.29
2018-06-29T01:32:04.193Z,1015.26
2018-06-29T01:33:04.176Z,1015.29
2018-06-29T01:34:04.162Z,1015.30
2018-06-29T01:35:04.149Z,1015.25
2018-06-29T01:36:04.143Z,1015.29
2018-06-29T01:37:04.120Z,1015.25
2018-06-29T01:38:04.117Z,1015.24
2018-06-29T01:39:04.093Z,1015.24
2018-06-29T01:40:04.082Z,1015.23
2018-06-29T01:41:04.065Z,1015.29
2018-06-29T01:42:04.052Z,1015.27
2018-06-29T01:43:04.037Z,1015.29
2018-06-29T01:44:04.024Z,1015.31
2018-06-29T01:45:04.011Z,1015.27
2018-06-29T01:46:03.997Z,1015.24
2018-06-29T01:47:03.990Z,1015.21
2018-06-29T01:48:03.969Z,1015.18
2018-06-29T01:49:03.958Z,1015.18
2018-06-29T01:50:03.940Z,1015.18
2018-06-29T01:51:03.926Z,1015.15
2018-06-29T01:52:03.913Z,1015.17
2018-06-29T01:53:03.898Z,1015.16
2018-06-29T01:54:03.884Z,1015.12
2018-06-29T01:55:03.872Z,1015.16
2018-06-29T01:56:03.867Z,1015.13
2018-06-29T01:57:03.843Z,1015.12
2018-06-29T01:58:03.829Z,1015.17
2018-06-29T01:59:03.816Z,1015.14
2018-06-29T02:00:03.801Z,1015.11
2018-06-29T02:01:03.787Z,1015.10
2018-06-29T02:02:03.774Z,1015.04
2018-06-29T02:03:03.758Z,1015.07
2018-06-29T02:04:03.795Z,1015.09
2018-06-29T02:05:03.732Z,1015.07
2018-06-29T02:06:03.717Z,1015.10
2018-06-29T02:07:03.706Z,1015.09
2018-06-29T02:08:03.728Z,1015.13
2018-06-29T02:09:03.679Z,1015.08
2018-06-29T02:10:03.662Z,1015.09
2018-06-29T02:11:03.647Z,1015.09
2018-06-29T02:12:03.634Z,1015.05
2018-06-29T02:13:03.619Z,1015.05
2018-06-29T02:14:03.607Z,1015.08
2018-06-29T02:15:03.592Z,1015.03
2018-06-29T02:16:03.579Z,1015.08
2018-06-29T02:17:03.564Z,1015.10
2018-06-29T02:18:03.550Z,1015.07
2018-06-29T02:19:03.537Z,1015.06
2018-06-29T02:20:03.524Z,1015.12
2018-06-29T02:21:03.512Z,1015.11
2018-06-29T02:22:03.494Z,1015.12
2018-06-29T02:23:03.478Z,1015.07
2018-06-29T02:24:03.465Z,1015.11
2018-06-29T02:25:03.451Z,1015.10
2018-06-29T02:26:03.439Z,1015.08
2018-06-29T02:27:03.425Z,1015.08
2018-06-29T02:28:03.409Z,1015.07
2018-06-29T02:29:03.394Z,1015.07
2018-06-29T02:30:03.379Z,1015.04
2018-06-29T02:31:03.369Z,1015.02
2018-06-29T02:32:03.353Z,1014.99
2018-06-29T02:33:03.340Z,1015.02
2018-06-29T02:34:03.324Z,1014.99
2018-06-29T02:35:03.309Z,1014.96
2018-06-29T02:36:03.296Z,1015.00
2018-06-29T02:37:03.281Z,1014.98
2018-06-29T02:38:03.272Z,1014.93
2018-06-29T02:39:03.251Z,1014.92
2018-06-29T02:40:03.241Z,1014.93
2018-06-29T02:41:03.224Z,1014.94
2018-06-29T02:42:03.209Z,1014.93
2018-06-29T02:43:03.196Z,1014.92
2018-06-29T02:44:03.180Z,1014.96
2018-06-29T02:45:03.172Z,1014.96
2018-06-29T02:46:03.153Z,1014.95
2018-06-29T02:47:03.145Z,1014.95
2018-06-29T02:48:03.124Z,1014.98
2018-06-29T02:49:03.116Z,1014.96
2018-06-29T02:50:03.097Z,1014.95
2018-06-29T02:51:03.080Z,1014.97
2018-06-29T02:52:03.071Z,1014.99
2018-06-29T02:53:03.055Z,1014.99
2018-06-29T02:54:03.036Z,1015.00
2018-06-29T02:55:03.028Z,1015.00
2018-06-29T02:56:03.017Z,1015.05
2018-06-29T02:57:02.997Z,1015.02
2018-06-29T02:58:02.983Z,1015.03
2018-06-29T02:59:02.964Z,1015.03
2018-06-29T03:00:03.008Z,1015.05
2018-06-29T03:01:02.936Z,1015.07
2018-06-29T03:02:02.931Z,1015.10
2018-06-29T03:03:02.907Z,1015.10
2018-06-29T03:04:02.893Z,1015.08
2018-06-29T03:05:02.877Z,1015.10
2018-06-29T03:06:02.876Z,1015.10
2018-06-29T03:07:02.859Z,1015.10
2018-06-29T03:08:02.839Z,1015.12
2018-06-29T03:09:02.820Z,1015.10
2018-06-29T03:10:02.804Z,1015.11
2018-06-29T03:11:02.792Z,1015.09
2018-06-29T03:12:02.792Z,1015.10
2018-06-29T03:13:02.762Z,1015.06
2018-06-29T03:14:02.749Z,1015.15
2018-06-29T03:15:02.736Z,1015.12
2018-06-29T03:16:02.718Z,1015.11
2018-06-29T03:17:02.703Z,1015.06
2018-06-29T03:18:02.693Z,1015.05
2018-06-29T03:19:02.678Z,1015.05
2018-06-29T03:20:02.665Z,1015.10
2018-06-29T03:21:02.646Z,1015.04
2018-06-29T03:22:02.644Z,1015.06
2018-06-29T03:23:02.616Z,1015.07
2018-06-29T03:24:02.604Z,1015.05
2018-06-29T03:25:02.774Z,1015.07
2018-06-29T03:26:02.571Z,1015.07
2018-06-29T03:27:02.557Z,1015.06
2018-06-29T03:28:02.594Z,1015.05
2018-06-29T03:29:02.527Z,1015.05
2018-06-29T03:30:02.515Z,1015.02
2018-06-29T03:31:02.503Z,1015.00
2018-06-29T03:32:02.486Z,1015.00
2018-06-29T03:33:02.528Z,1014.99
2018-06-29T03:34:02.456Z,1015.00
2018-06-29T03:35:02.441Z,1014.97
2018-06-29T03:36:02.428Z,1014.93
2018-06-29T03:37:02.412Z,1014.93
2018-06-29T03:38:02.395Z,1014.95
2018-06-29T03:39:02.391Z,1014.99
2018-06-29T03:40:02.367Z,1014.96
2018-06-29T03:41:02.354Z,1014.95
2018-06-29T03:42:02.338Z,1014.97
2018-06-29T03:43:02.322Z,1014.95
2018-06-29T03:44:02.309Z,1014.93
2018-06-29T03:45:02.295Z,1014.96
2018-06-29T03:46:02.281Z,1014.96
2018-06-29T03:47:02.265Z,1014.96
2018-06-29T03:48:02.253Z,1014.96
2018-06-29T03:49:02.236Z,1014.96
2018-06-29T03:50:02.220Z,1014.91
2018-06-29T03:51:02.208Z,1014.87
2018-06-29T03:52:02.192Z,1014.88
2018-06-29T03:53:02.175Z,1014.84
2018-06-29T03:54:02.161Z,1014.85
2018-06-29T03:55:02.147Z,1014.86
2018-06-29T03:56:02.132Z,1014.82
2018-06-29T03:57:02.119Z,1014.84
2018-06-29T03:58:02.102Z,1014.86
2018-06-29T03:59:02.088Z,1014.87
2018-06-29T04:00:02.072Z,1014.85
2018-06-29T04:01:02.059Z,1014.88
2018-06-29T04:02:02.044Z,1014.86
2018-06-29T04:03:02.031Z,1014.86
2018-06-29T04:04:02.030Z,1014.87
2018-06-29T04:05:01.999Z,1014.84
2018-06-29T04:06:01.985Z,1014.87
2018-06-29T04:07:01.975Z,1014.83
2018-06-29T04:08:01.964Z,1014.83
2018-06-29T04:09:01.940Z,1014.84
2018-06-29T04:10:01.925Z,1014.81
2018-06-29T04:11:01.910Z,1014.83
2018-06-29T04:12:01.897Z,1014.83
2018-06-29T04:13:01.978Z,1014.84
2018-06-29T04:14:01.866Z,1014.88
2018-06-29T04:15:01.852Z,1014.88
2018-06-29T04:16:01.836Z,1014.92
2018-06-29T04:17:01.828Z,1014.88
2018-06-29T04:18:01.807Z,1014.95
2018-06-29T04:19:01.791Z,1014.98
2018-06-29T04:20:01.779Z,1014.97
2018-06-29T04:21:01.767Z,1015.01
2018-06-29T04:22:01.747Z,1015.03
2018-06-29T04:23:01.733Z,1015.05
2018-06-29T04:24:01.719Z,1015.02
2018-06-29T04:25:01.703Z,1015.01
2018-06-29T04:26:01.689Z,1014.99
2018-06-29T04:27:01.677Z,1014.99
2018-06-29T04:28:01.660Z,1015.01
2018-06-29T04:29:01.644Z,1015.08
2018-06-29T04:30:01.639Z,1015.04
2018-06-29T04:31:01.615Z,1015.04
2018-06-29T04:32:01.608Z,1015.03
2018-06-29T04:33:01.594Z,1015.05
2018-06-29T04:34:01.571Z,1015.04
2018-06-29T04:35:01.558Z,1015.05
2018-06-29T04:36:01.542Z,1015.07
2018-06-29T04:37:01.537Z,1015.03
2018-06-29T04:38:01.523Z,1014.99
2018-06-29T04:39:01.497Z,1014.98
2018-06-29T04:40:01.486Z,1014.94
2018-06-29T04:41:01.468Z,1014.96
2018-06-29T04:42:01.454Z,1014.99
2018-06-29T04:43:01.442Z,1014.91
2018-06-29T04:44:01.426Z,1014.95
2018-06-29T04:45:01.411Z,1014.92
2018-06-29T04:46:01.396Z,1014.96
2018-06-29T04:47:01.382Z,1014.94
2018-06-29T04:48:01.374Z,1014.91
2018-06-29T04:49:01.370Z,1014.92
2018-06-29T04:50:01.337Z,1014.87
2018-06-29T04:51:01.322Z,1014.89
2018-06-29T04:52:01.308Z,1014.88
2018-06-29T04:53:01.295Z,1014.83
2018-06-29T04:54:01.279Z,1014.78
2018-06-29T04:55:01.264Z,1014.74
2018-06-29T04:56:01.252Z,1014.74
2018-06-29T04:57:01.284Z,1014.78
2018-06-29T04:58:01.221Z,1014.79
2018-06-29T04:59:01.212Z,1014.81
2018-06-29T05:00:01.191Z,1014.82
2018-06-29T05:01:01.277Z,1014.86
2018-06-29T05:02:01.161Z,1014.89
2018-06-29T05:03:01.147Z,1014.88
2018-06-29T05:04:01.132Z,1014.88
2018-06-29T05:05:01.116Z,1014.90
2018-06-29T05:06:01.106Z,1014.89
2018-06-29T05:07:01.091Z,1014.90
2018-06-29T05:08:01.081Z,1014.86
2018-06-29T05:09:01.059Z,1014.92
2018-06-29T05:10:01.044Z,1014.93
2018-06-29T05:11:01.039Z,1014.93
2018-06-29T05:12:01.014Z,1014.91
2018-06-29T05:13:01.001Z,1014.92
2018-06-29T05:14:00.986Z,1014.93
2018-06-29T05:15:00.971Z,1014.94
2018-06-29T05:16:00.968Z,1014.97
2018-06-29T05:17:00.941Z,1014.94
2018-06-29T05:18:00.937Z,1014.94
2018-06-29T05:19:00.912Z,1014.93
2018-06-29T05:20:00.911Z,1014.94
2018-06-29T05:21:00.989Z,1014.90
2018-06-29T05:22:00.875Z,1014.92
2018-06-29T05:23:00.854Z,1014.90
2018-06-29T05:24:00.841Z,1014.90
2018-06-29T05:25:00.825Z,1014.92
2018-06-29T05:26:00.819Z,1014.98
2018-06-29T05:27:00.805Z,1014.99
2018-06-29T05:28:00.783Z,1014.93
2018-06-29T05:29:00.769Z,1014.98
2018-06-29T05:30:00.754Z,1014.99
2018-06-29T05:31:00.740Z,1014.97
2018-06-29T05:32:00.743Z,1014.98
2018-06-29T05:33:00.709Z,1014.98
2018-06-29T05:34:00.697Z,1014.95
2018-06-29T05:35:00.683Z,1014.95
2018-06-29T05:36:00.669Z,1014.95
2018-06-29T05:37:00.653Z,1014.93
2018-06-29T05:38:00.640Z,1014.96
2018-06-29T05:39:00.626Z,1014.92
2018-06-29T05:40:00.669Z,1014.92
2018-06-29T05:41:00.594Z,1014.91
2018-06-29T05:42:00.583Z,1014.99
2018-06-29T05:43:00.568Z,1015.06
2018-06-29T05:44:00.554Z,1015.48
2018-06-29T05:45:00.538Z,1015.79
2018-06-29T05:46:00.533Z,1015.89
2018-06-29T05:47:00.583Z,1015.94
2018-06-29T05:48:00.498Z,1015.96
2018-06-29T05:49:00.489Z,1015.96
2018-06-29T05:50:00.467Z,1015.99
2018-06-29T05:51:00.458Z,1016.08
2018-06-29T05:52:00.445Z,1016.04
2018-06-29T05:53:00.489Z,1016.03
2018-06-29T05:54:00.419Z,1016.05
2018-06-29T05:55:00.412Z,1016.04
2018-06-29T05:56:00.501Z,1016.03
2018-06-29T05:57:00.385Z,1016.02
2018-06-29T05:58:00.384Z,1015.99
2018-06-29T05:59:00.366Z,1015.97
2018-06-29T06:00:00.366Z,1016.00
2018-06-29T06:01:00.348Z,1015.91
2018-06-29T06:02:00.365Z,1015.94
2018-06-29T06:03:00.330Z,1015.98
2018-06-29T06:04:00.325Z,1015.98
2018-06-29T06:05:00.320Z,1016.01
2018-06-29T06:06:00.305Z,1015.98
2018-06-29T06:07:00.299Z,1015.96
2018-06-29T06:08:00.302Z,1015.97
2018-06-29T06:09:00.291Z,1015.96
2018-06-29T06:10:00.296Z,1015.97
2018-06-29T06:11:00.273Z,1015.96
2018-06-29T06:12:00.270Z,1015.94
2018-06-29T06:13:00.264Z,1015.95
2018-06-29T06:14:00.258Z,1015.97
2018-06-29T06:15:00.254Z,1015.96
2018-06-29T06:16:00.268Z,1015.93
2018-06-29T06:17:00.255Z,1015.97
2018-06-29T06:18:00.242Z,1015.91
2018-06-29T06:19:00.237Z,1015.85
2018-06-29T06:20:00.237Z,1015.83
2018-06-29T06:21:00.230Z,1015.80
2018-06-29T06:22:00.280Z,1015.78
2018-06-29T06:23:00.224Z,1015.74
2018-06-29T06:24:00.227Z,1015.74
2018-06-29T06:25:00.222Z,1015.77
2018-06-29T06:26:00.218Z,1015.75
2018-06-29T06:27:00.216Z,1015.73
2018-06-29T06:28:00.215Z,1015.77
2018-06-29T06:29:00.211Z,1015.76
2018-06-29T06:30:00.211Z,1015.75
2018-06-29T06:31:00.217Z,1015.69
2018-06-29T06:32:00.208Z,1015.70
2018-06-29T06:33:00.249Z,1015.68
2018-06-29T06:34:00.207Z,1015.68
2018-06-29T06:35:00.207Z,1015.68
2018-06-29T06:36:00.213Z,1015.67
2018-06-29T06:37:00.205Z,1015.67
2018-06-29T06:38:00.213Z,1015.64
2018-06-29T06:39:00.214Z,1015.61
2018-06-29T06:40:00.206Z,1015.61
2018-06-29T06:41:00.205Z,1015.66
2018-06-29T06:42:00.222Z,1015.65
2018-06-29T06:43:00.207Z,1015.65
2018-06-29T06:44:00.209Z,1015.62
2018-06-29T06:45:00.210Z,1015.63
2018-06-29T06:46:00.214Z,1015.63
2018-06-29T06:47:00.297Z,1015.64
2018-06-29T06:48:00.212Z,1015.67
2018-06-29T06:49:00.213Z,1015.65
2018-06-29T06:50:00.215Z,1015.66
2018-06-29T06:51:00.216Z,1015.64
2018-06-29T06:52:00.219Z,1015.66
2018-06-29T06:53:00.222Z,1015.60
2018-06-29T06:54:00.221Z,1015.60
2018-06-29T06:55:00.544Z,1015.57
2018-06-29T06:56:00.226Z,1015.61
2018-06-29T06:57:00.238Z,1015.64
2018-06-29T06:58:00.231Z,1015.65
2018-06-29T06:59:00.244Z,1015.64
2018-06-29T07:00:00.237Z,1015.62
2018-06-29T07:01:00.289Z,1015.59
2018-06-29T07:02:00.242Z,1015.56
2018-06-29T07:03:00.260Z,1015.50
2018-06-29T07:04:00.254Z,1015.49
2018-06-29T07:05:00.254Z,1015.48
2018-06-29T07:06:00.254Z,1015.55
2018-06-29T07:07:00.257Z,1015.52
2018-06-29T07:08:00.277Z,1015.41
2018-06-29T07:09:00.263Z,1015.50
2018-06-29T07:10:00.266Z,1015.48
2018-06-29T07:11:00.271Z,1015.48
2018-06-29T07:12:00.276Z,1015.45
2018-06-29T07:13:00.279Z,1015.29
2018-06-29T07:14:00.282Z,1015.50
2018-06-29T07:15:00.287Z,1015.44
2018-06-29T07:16:00.299Z,1015.50
2018-06-29T07:17:00.298Z,1015.51
2018-06-29T07:18:00.299Z,1015.53
2018-06-29T07:19:00.301Z,1015.51
2018-06-29T07:20:00.306Z,1015.46
2018-06-29T07:21:00.309Z,1015.47
2018-06-29T07:22:00.312Z,1015.43
2018-06-29T07:23:00.317Z,1015.39
2018-06-29T07:24:00.325Z,1015.43
2018-06-29T07:25:00.332Z,1015.42
2018-06-29T07:26:00.329Z,1015.37
2018-06-29T07:27:00.333Z,1015.42
2018-06-29T07:28:00.345Z,1015.43
2018-06-29T07:29:00.340Z,1015.44
2018-06-29T07:30:00.387Z,1015.39
2018-06-29T07:31:00.356Z,1015.38
2018-06-29T07:32:00.356Z,1015.36
2018-06-29T07:33:00.359Z,1015.40
2018-06-29T07:34:00.364Z,1015.39
2018-06-29T07:35:00.380Z,1015.39
2018-06-29T07:36:00.376Z,1015.40
2018-06-29T07:37:00.397Z,1015.39
2018-06-29T07:38:00.388Z,1015.37
2018-06-29T07:39:00.392Z,1015.36
2018-06-29T07:40:00.394Z,1015.23
2018-06-29T07:41:00.399Z,1015.15
2018-06-29T07:42:00.409Z,1014.90
2018-06-29T07:43:00.409Z,1014.96
2018-06-29T07:44:00.416Z,1014.90
2018-06-29T07:45:00.430Z,1014.93
2018-06-29T07:46:00.422Z,1014.90
2018-06-29T07:47:00.427Z,1014.93
2018-06-29T07:48:00.433Z,1014.90
2018-06-29T07:49:00.440Z,1014.83
2018-06-29T07:50:00.437Z,1014.87
2018-06-29T07:51:00.440Z,1014.86
2018-06-29T07:52:00.445Z,1014.88
2018-06-29T07:53:00.447Z,1014.82
2018-06-29T07:54:00.445Z,1014.82
2018-06-29T07:55:00.456Z,1014.81
2018-06-29T07:56:00.457Z,1014.83
2018-06-29T07:57:00.445Z,1014.82
2018-06-29T07:58:00.495Z,1014.78
2018-06-29T07:59:00.451Z,1014.79
2018-06-29T08:00:00.447Z,1014.80
2018-06-29T08:01:00.443Z,1014.82
2018-06-29T08:02:00.445Z,1014.86
2018-06-29T08:03:00.452Z,1014.80
2018-06-29T08:04:00.531Z,1014.80
2018-06-29T08:05:00.440Z,1014.84
2018-06-29T08:06:00.446Z,1014.83
2018-06-29T08:07:00.435Z,1014.80
2018-06-29T08:08:00.484Z,1014.80
2018-06-29T08:09:00.444Z,1014.74
2018-06-29T08:10:00.427Z,1015.09
2018-06-29T08:11:00.425Z,1015.00
2018-06-29T08:12:00.429Z,1015.07
2018-06-29T08:13:00.427Z,1014.76
2018-06-29T08:14:00.419Z,1014.92
2018-06-29T08:15:00.416Z,1014.83
2018-06-29T08:16:00.414Z,1014.67
2018-06-29T08:17:00.409Z,1014.61
2018-06-29T08:18:00.409Z,1014.63
2018-06-29T08:19:00.407Z,1014.62
2018-06-29T08:20:00.401Z,1014.67
2018-06-29T08:21:00.400Z,1014.63
2018-06-29T08:22:00.397Z,1014.62
2018-06-29T08:23:00.394Z,1014.62
2018-06-29T08:24:00.392Z,1014.65
2018-06-29T08:25:00.388Z,1014.68
2018-06-29T08:26:00.387Z,1014.58
2018-06-29T08:27:00.392Z,1014.53
2018-06-29T08:28:00.380Z,1014.52
2018-06-29T08:29:00.379Z,1014.52
2018-06-29T08:30:00.383Z,1014.47
2018-06-29T08:31:00.368Z,1014.50
2018-06-29T08:32:00.363Z,1014.45
2018-06-29T08:33:00.359Z,1014.47
2018-06-29T08:34:00.353Z,1014.48
2018-06-29T08:35:00.359Z,1014.50
2018-06-29T08:36:00.355Z,1014.49
2018-06-29T08:37:00.346Z,1014.48
2018-06-29T08:38:00.341Z,1014.49
2018-06-29T08:39:00.389Z,1014.56
2018-06-29T08:40:00.327Z,1014.53
2018-06-29T08:41:00.320Z,1014.47
2018-06-29T08:42:00.312Z,1014.51
2018-06-29T08:43:00.309Z,1014.53
2018-06-29T08:44:00.312Z,1014.46
2018-06-29T08:45:00.298Z,1014.46
2018-06-29T08:46:00.290Z,1014.46
2018-06-29T08:47:00.300Z,1014.45
2018-06-29T08:48:00.278Z,1014.43
2018-06-29T08:49:00.293Z,1014.47
2018-06-29T08:50:00.266Z,1014.43
2018-06-29T08:51:00.267Z,1014.43
2018-06-29T08:52:00.263Z,1014.40
2018-06-29T08:53:00.250Z,1014.42
2018-06-29T08:54:00.240Z,1014.46
2018-06-29T08:55:00.272Z,1014.48
2018-06-29T08:56:00.227Z,1014.45
2018-06-29T08:57:00.225Z,1014.47
2018-06-29T08:58:00.214Z,1014.48
2018-06-29T08:59:00.215Z,1014.49
2018-06-29T09:00:00.200Z,1014.46
2018-06-29T09:01:00.192Z,1014.46
2018-06-29T09:02:00.186Z,1014.51
2018-06-29T09:03:00.181Z,1014.48
2018-06-29T09:04:00.173Z,1014.49
2018-06-29T09:05:00.252Z,1014.61
2018-06-29T09:06:00.171Z,1014.52
2018-06-29T09:07:00.174Z,1014.53
2018-06-29T09:08:00.147Z,1014.44
2018-06-29T09:09:00.146Z,1014.58
2018-06-29T09:10:00.131Z,1014.48
2018-06-29T09:11:00.173Z,1014.70
2018-06-29T09:12:00.136Z,1014.52
2018-06-29T09:13:00.114Z,1014.73
2018-06-29T09:14:00.109Z,1014.76
2018-06-29T09:15:00.111Z,1014.83
2018-06-29T09:16:00.100Z,1014.89
2018-06-29T09:17:00.095Z,1014.91
2018-06-29T09:18:00.096Z,1014.97
2018-06-29T09:19:00.154Z,1014.95
2018-06-29T09:20:00.086Z,1014.87
2018-06-29T09:21:00.088Z,1014.69
2018-06-29T09:22:00.081Z,1014.82
2018-06-29T09:23:00.078Z,1014.96
2018-06-29T09:24:00.078Z,1014.99
2018-06-29T09:25:00.083Z,1014.99
2018-06-29T09:26:00.077Z,1014.50
2018-06-29T09:27:00.083Z,1014.49
2018-06-29T09:28:00.076Z,1014.92
2018-06-29T09:29:00.078Z,1014.36
2018-06-29T09:30:00.102Z,1014.37
2018-06-29T09:31:00.076Z,1014.54
2018-06-29T09:32:00.082Z,1014.41
2018-06-29T09:33:00.076Z,1014.49
2018-06-29T09:34:00.078Z,1014.37
2018-06-29T09:35:00.081Z,1014.49
2018-06-29T09:36:00.093Z,1014.56
2018-06-29T09:37:00.081Z,1014.32
2018-06-29T09:38:00.080Z,1014.65
2018-06-29T09:39:00.093Z,1014.62
2018-06-29T09:40:00.086Z,1014.64
2018-06-29T09:41:00.084Z,1014.69
2018-06-29T09:42:00.088Z,1014.66
2018-06-29T09:43:00.088Z,1014.46
2018-06-29T09:44:00.087Z,1014.55
2018-06-29T09:45:00.090Z,1014.56
2018-06-29T09:46:00.092Z,1014.60
2018-06-29T09:47:00.094Z,1014.38
2018-06-29T09:48:00.127Z,1014.60
2018-06-29T09:49:00.097Z,1014.25
2018-06-29T09:50:00.112Z,1014.23
2018-06-29T09:51:00.103Z,1014.20
2018-06-29T09:52:00.208Z,1014.17
2018-06-29T09:53:00.114Z,1014.17
2018-06-29T09:54:00.161Z,1014.13
2018-06-29T09:55:00.110Z,1014.49
2018-06-29T09:56:00.113Z,1014.16
2018-06-29T09:57:00.113Z,1014.11
2018-06-29T09:58:00.115Z,1014.11
2018-06-29T09:59:00.123Z,1014.08
2018-06-29T10:00:00.151Z,1014.22
2018-06-29T10:01:00.202Z,1014.15
2018-06-29T10:02:00.127Z,1014.28
2018-06-29T10:03:00.124Z,1014.07
2018-06-29T10:04:00.124Z,1014.15
2018-06-29T10:05:00.123Z,1014.19
2018-06-29T10:06:00.130Z,1014.17
2018-06-29T10:07:00.126Z,1014.19
2018-06-29T10:08:00.126Z,1014.17
2018-06-29T10:09:00.127Z,1014.03
2018-06-29T10:10:00.135Z,1014.00
2018-06-29T10:11:00.130Z,1014.06
2018-06-29T10:12:00.137Z,1014.20
2018-06-29T10:13:00.175Z,1014.26
2018-06-29T10:14:00.147Z,1014.24
2018-06-29T10:15:00.140Z,1014.21
2018-06-29T10:16:00.141Z,1014.11
2018-06-29T10:17:00.156Z,1014.05
2018-06-29T10:18:00.147Z,1014.02
2018-06-29T10:19:00.148Z,1013.96
2018-06-29T10:20:00.275Z,1014.01
2018-06-29T10:21:00.156Z,1014.05
2018-06-29T10:22:00.180Z,1013.99
2018-06-29T10:23:00.171Z,1013.95
2018-06-29T10:24:00.183Z,1013.89
2018-06-29T10:25:00.174Z,1013.86
2018-06-29T10:26:00.187Z,1013.88
2018-06-29T10:27:00.187Z,1013.91
2018-06-29T10:28:00.202Z,1013.88
2018-06-29T10:29:00.198Z,1013.81
2018-06-29T10:30:00.208Z,1013.84
2018-06-29T10:31:00.214Z,1013.78
2018-06-29T10:32:00.222Z,1013.72
2018-06-29T10:33:00.389Z,1013.76
2018-06-29T10:34:00.236Z,1013.71
2018-06-29T10:35:00.243Z,1013.64
2018-06-29T10:36:00.310Z,1013.65
2018-06-29T10:37:00.270Z,1013.59
2018-06-29T10:38:00.274Z,1013.56
2018-06-29T10:39:00.278Z,1013.53
2018-06-29T10:40:00.286Z,1013.53
2018-06-29T10:41:00.296Z,1013.48
2018-06-29T10:42:00.304Z,1013.45
2018-06-29T10:43:00.317Z,1013.44
2018-06-29T10:44:00.321Z,1013.42
2018-06-29T10:45:00.394Z,1013.36
2018-06-29T10:46:00.340Z,1013.37
2018-06-29T10:47:00.351Z,1013.35
2018-06-29T10:48:00.360Z,1013.31
2018-06-29T10:49:00.377Z,1013.34
2018-06-29T10:50:00.382Z,1013.35
2018-06-29T10:51:00.391Z,1013.32
2018-06-29T10:52:00.402Z,1013.26
2018-06-29T10:53:00.412Z,1013.27
2018-06-29T10:54:00.439Z,1013.19
2018-06-29T10:55:00.445Z,1013.18
2018-06-29T10:56:00.447Z,1013.22
2018-06-29T10:57:00.450Z,1013.18
2018-06-29T10:58:00.459Z,1013.16
2018-06-29T10:59:00.471Z,1013.17
2018-06-29T11:00:00.479Z,1013.15
2018-06-29T11:01:00.498Z,1013.15
2018-06-29T11:02:00.503Z,1013.16
2018-06-29T11:03:00.534Z,1013.21
2018-06-29T11:04:00.534Z,1013.22
2018-06-29T11:05:00.533Z,1013.17
2018-06-29T11:06:00.744Z,1013.16
2018-06-29T11:07:00.558Z,1013.23
2018-06-29T11:08:00.562Z,1013.17
2018-06-29T11:09:00.571Z,1013.20
2018-06-29T11:10:00.585Z,1013.28
2018-06-29T11:11:00.623Z,1013.29
2018-06-29T11:12:00.621Z,1013.35
2018-06-29T11:13:00.616Z,1013.39
2018-06-29T11:14:00.634Z,1013.39
2018-06-29T11:15:00.650Z,1013.35
2018-06-29T11:16:00.654Z,1013.42
2018-06-29T11:17:00.655Z,1013.44
2018-06-29T11:18:00.665Z,1013.49
2018-06-29T11:19:00.685Z,1013.55
2018-06-29T11:20:00.686Z,1013.55
2018-06-29T11:21:00.812Z,1013.62
2018-06-29T11:22:00.714Z,1013.62
2018-06-29T11:23:00.717Z,1013.61
2018-06-29T11:24:00.725Z,1013.70
2018-06-29T11:25:00.743Z,1013.71
2018-06-29T11:26:00.749Z,1013.78
2018-06-29T11:27:00.767Z,1013.85
2018-06-29T11:28:00.768Z,1013.82
2018-06-29T11:29:00.777Z,1013.92
2018-06-29T11:30:00.788Z,1013.88
2018-06-29T11:31:00.798Z,1013.84
2018-06-29T11:32:00.821Z,1013.97
2018-06-29T11:33:00.823Z,1013.98
2018-06-29T11:34:00.828Z,1014.00
2018-06-29T11:35:00.848Z,1014.07
2018-06-29T11:36:00.854Z,1014.23
2018-06-29T11:37:00.863Z,1014.35
2018-06-29T11:38:00.872Z,1014.40
2018-06-29T11:39:00.879Z,1014.57
2018-06-29T11:40:00.892Z,1014.67
2018-06-29T11:41:00.900Z,1014.54
2018-06-29T11:42:00.911Z,1014.78
2018-06-29T11:43:00.922Z,1014.76
2018-06-29T11:44:00.957Z,1014.65
2018-06-29T11:45:00.935Z,1014.64
2018-06-29T11:46:00.950Z,1014.55
2018-06-29T11:47:00.973Z,1014.06
2018-06-29T11:48:00.967Z,1013.40
2018-06-29T11:49:00.970Z,1013.18
2018-06-29T11:50:00.973Z,1013.20
2018-06-29T11:51:00.983Z,1013.17
2018-06-29T11:52:00.991Z,1013.13
2018-06-29T11:53:00.992Z,1013.11
2018-06-29T11:54:00.997Z,1013.10
2018-06-29T11:55:01.003Z,1013.14
2018-06-29T11:56:01.004Z,1013.14
2018-06-29T11:57:01.014Z,1013.18
2018-06-29T11:58:01.030Z,1013.22
2018-06-29T11:59:01.022Z,1013.14
2018-06-29T12:00:01.013Z,1013.15
2018-06-29T12:01:01.014Z,1013.15
2018-06-29T12:02:01.027Z,1013.17
2018-06-29T12:03:01.017Z,1013.07
2018-06-29T12:04:01.027Z,1013.02
2018-06-29T12:05:01.020Z,1013.04